sensor_id;sensor_type;location;lat;lon;timestamp;temperature;humidity
8711;DHT22;4392;47.400;8.062;2023-03-01T00:01:38;3.50;80.60
8711;DHT22;4392;47.400;8.062;2023-03-01T00:04:07;3.60;80.70
8711;DHT22;4392;47.400;8.062;2023-03-01T00:06:33;3.60;80.50
8711;DHT22;4392;47.400;8.062;2023-03-01T00:08:58;3.60;80.60
8711;DHT22;4392;47.400;8.062;2023-03-01T00:11:27;3.60;80.60
8711;DHT22;4392;47.400;8.062;2023-03-01T00:13:57;3.60;80.70
8711;DHT22;4392;47.400;8.062;2023-03-01T00:16:29;3.60;80.50
8711;DHT22;4392;47.400;8.062;2023-03-01T00:19:00;3.60;80.40
8711;DHT22;4392;47.400;8.062;2023-03-01T00:21:27;3.60;80.40
8711;DHT22;4392;47.400;8.062;2023-03-01T00:23:54;3.60;80.70
8711;DHT22;4392;47.400;8.062;2023-03-01T00:26:26;3.60;80.70
8711;DHT22;4392;47.400;8.062;2023-03-01T00:28:57;3.60;80.80
8711;DHT22;4392;47.400;8.062;2023-03-01T00:31:28;3.60;80.70
8711;DHT22;4392;47.400;8.062;2023-03-01T00:34:00;3.60;80.60
8711;DHT22;4392;47.400;8.062;2023-03-01T00:36:28;3.60;80.30
8711;DHT22;4392;47.400;8.062;2023-03-01T00:38:54;3.60;80.10
8711;DHT22;4392;47.400;8.062;2023-03-01T00:41:21;3.60;80.00
8711;DHT22;4392;47.400;8.062;2023-03-01T00:43:50;3.60;80.20
8711;DHT22;4392;47.400;8.062;2023-03-01T00:46:18;3.60;80.10
8711;DHT22;4392;47.400;8.062;2023-03-01T00:48:50;3.70;80.20
8711;DHT22;4392;47.400;8.062;2023-03-01T00:51:24;3.90;80.40
8711;DHT22;4392;47.400;8.062;2023-03-01T00:53:52;4.00;79.70
8711;DHT22;4392;47.400;8.062;2023-03-01T00:56:18;4.10;80.00
8711;DHT22;4392;47.400;8.062;2023-03-01T00:58:50;4.10;79.50
8711;DHT22;4392;47.400;8.062;2023-03-01T01:01:21;4.10;79.40
8711;DHT22;4392;47.400;8.062;2023-03-01T01:04:06;4.10;79.30
8711;DHT22;4392;47.400;8.062;2023-03-01T01:06:44;4.40;84.90
8711;DHT22;4392;47.400;8.062;2023-03-01T01:09:16;4.30;79.50
8711;DHT22;4392;47.400;8.062;2023-03-01T01:11:50;4.30;79.10
8711;DHT22;4392;47.400;8.062;2023-03-01T01:14:17;4.20;79.30
8711;DHT22;4392;47.400;8.062;2023-03-01T01:16:43;4.30;82.30
8711;DHT22;4392;47.400;8.062;2023-03-01T01:19:14;4.40;80.60
8711;DHT22;4392;47.400;8.062;2023-03-01T01:21:43;4.20;79.10
8711;DHT22;4392;47.400;8.062;2023-03-01T01:24:09;4.10;79.50
8711;DHT22;4392;47.400;8.062;2023-03-01T01:26:42;4.00;79.40
8711;DHT22;4392;47.400;8.062;2023-03-01T01:29:09;3.90;80.00
8711;DHT22;4392;47.400;8.062;2023-03-01T01:31:39;4.10;81.50
8711;DHT22;4392;47.400;8.062;2023-03-01T01:34:07;4.20;80.40
8711;DHT22;4392;47.400;8.062;2023-03-01T01:36:34;4.20;79.70
8711;DHT22;4392;47.400;8.062;2023-03-01T01:39:06;4.20;79.60
8711;DHT22;4392;47.400;8.062;2023-03-01T01:41:32;4.20;79.40
8711;DHT22;4392;47.400;8.062;2023-03-01T01:49:56;4.20;79.40
8711;DHT22;4392;47.400;8.062;2023-03-01T01:52:34;4.20;79.50
8711;DHT22;4392;47.400;8.062;2023-03-01T01:55:10;4.20;79.50
8711;DHT22;4392;47.400;8.062;2023-03-01T01:57:45;4.80;93.20
8711;DHT22;4392;47.400;8.062;2023-03-01T02:00:22;4.80;81.60
8711;DHT22;4392;47.400;8.062;2023-03-01T02:03:09;4.60;80.00
8711;DHT22;4392;47.400;8.062;2023-03-01T02:05:58;4.50;79.70
8711;DHT22;4392;47.400;8.062;2023-03-01T02:08:31;4.40;79.60
8711;DHT22;4392;47.400;8.062;2023-03-01T02:10:59;4.40;79.50
8711;DHT22;4392;47.400;8.062;2023-03-01T02:13:34;4.40;79.50
8711;DHT22;4392;47.400;8.062;2023-03-01T02:16:08;4.30;79.70
8711;DHT22;4392;47.400;8.062;2023-03-01T02:18:34;4.30;79.70
8711;DHT22;4392;47.400;8.062;2023-03-01T02:21:12;4.30;79.70
8711;DHT22;4392;47.400;8.062;2023-03-01T02:23:43;4.30;79.50
8711;DHT22;4392;47.400;8.062;2023-03-01T02:26:46;4.30;79.60
8711;DHT22;4392;47.400;8.062;2023-03-01T02:29:14;4.30;79.50
8711;DHT22;4392;47.400;8.062;2023-03-01T02:31:39;4.30;79.30
8711;DHT22;4392;47.400;8.062;2023-03-01T02:34:23;4.30;79.40
8711;DHT22;4392;47.400;8.062;2023-03-01T02:36:57;4.30;79.30
8711;DHT22;4392;47.400;8.062;2023-03-01T02:39:37;4.30;79.60
8711;DHT22;4392;47.400;8.062;2023-03-01T02:42:16;4.30;83.00
8711;DHT22;4392;47.400;8.062;2023-03-01T02:44:46;5.40;97.80
8711;DHT22;4392;47.400;8.062;2023-03-01T02:47:11;6.00;99.90
8711;DHT22;4392;47.400;8.062;2023-03-01T02:49:37;6.80;99.00
8711;DHT22;4392;47.400;8.062;2023-03-01T02:55:03;7.20;92.50
8711;DHT22;4392;47.400;8.062;2023-03-01T02:57:43;7.40;92.70
8711;DHT22;4392;47.400;8.062;2023-03-01T03:00:16;7.40;90.80
8711;DHT22;4392;47.400;8.062;2023-03-01T03:02:47;7.40;90.20
8711;DHT22;4392;47.400;8.062;2023-03-01T03:05:17;7.30;89.80
8711;DHT22;4392;47.400;8.062;2023-03-01T03:07:52;7.50;87.70
8711;DHT22;4392;47.400;8.062;2023-03-01T03:10:20;7.40;82.60
8711;DHT22;4392;47.400;8.062;2023-03-01T03:12:56;7.40;83.80
8711;DHT22;4392;47.400;8.062;2023-03-01T03:15:26;7.50;83.50
8711;DHT22;4392;47.400;8.062;2023-03-01T03:17:53;7.90;76.30
8711;DHT22;4392;47.400;8.062;2023-03-01T03:20:25;6.80;72.50
8711;DHT22;4392;47.400;8.062;2023-03-01T03:22:53;6.20;73.60
8711;DHT22;4392;47.400;8.062;2023-03-01T03:25:28;5.80;74.80
8711;DHT22;4392;47.400;8.062;2023-03-01T03:27:55;5.50;75.80
8711;DHT22;4392;47.400;8.062;2023-03-01T03:30:30;5.40;76.10
8711;DHT22;4392;47.400;8.062;2023-03-01T03:33:00;5.40;78.60
8711;DHT22;4392;47.400;8.062;2023-03-01T03:35:32;5.30;76.80
8711;DHT22;4392;47.400;8.062;2023-03-01T03:38:05;5.20;78.20
8711;DHT22;4392;47.400;8.062;2023-03-01T03:40:39;5.10;77.70
8711;DHT22;4392;47.400;8.062;2023-03-01T03:43:20;5.80;90.80
8711;DHT22;4392;47.400;8.062;2023-03-01T03:45:51;8.30;86.00
8711;DHT22;4392;47.400;8.062;2023-03-01T03:48:21;7.20;71.90
8711;DHT22;4392;47.400;8.062;2023-03-01T03:50:51;6.30;73.60
8711;DHT22;4392;47.400;8.062;2023-03-01T03:53:21;5.70;74.90
8711;DHT22;4392;47.400;8.062;2023-03-01T03:55:48;5.40;76.20
8711;DHT22;4392;47.400;8.062;2023-03-01T03:58:15;5.20;76.70
8711;DHT22;4392;47.400;8.062;2023-03-01T04:00:47;5.00;76.80
8711;DHT22;4392;47.400;8.062;2023-03-01T04:03:15;5.00;77.80
8711;DHT22;4392;47.400;8.062;2023-03-01T04:05:48;4.90;78.10
8711;DHT22;4392;47.400;8.062;2023-03-01T04:08:25;4.90;78.20
8711;DHT22;4392;47.400;8.062;2023-03-01T04:10:56;4.90;78.30
8711;DHT22;4392;47.400;8.062;2023-03-01T04:13:24;5.30;84.40
8711;DHT22;4392;47.400;8.062;2023-03-01T04:15:52;5.30;79.70
8711;DHT22;4392;47.400;8.062;2023-03-01T04:18:25;5.40;78.60
8711;DHT22;4392;47.400;8.062;2023-03-01T04:20:51;5.40;78.00
8711;DHT22;4392;47.400;8.062;2023-03-01T04:23:21;5.30;78.10
8711;DHT22;4392;47.400;8.062;2023-03-01T04:25:51;5.30;77.80
8711;DHT22;4392;47.400;8.062;2023-03-01T04:28:28;5.30;77.80
8711;DHT22;4392;47.400;8.062;2023-03-01T04:30:56;5.30;78.00
8711;DHT22;4392;47.400;8.062;2023-03-01T04:33:26;5.20;78.00
8711;DHT22;4392;47.400;8.062;2023-03-01T04:35:51;5.30;78.40
8711;DHT22;4392;47.400;8.062;2023-03-01T04:38:18;5.40;77.50
8711;DHT22;4392;47.400;8.062;2023-03-01T04:40:52;5.30;77.50
8711;DHT22;4392;47.400;8.062;2023-03-01T04:43:17;5.30;78.10
8711;DHT22;4392;47.400;8.062;2023-03-01T04:45:44;5.30;78.00
8711;DHT22;4392;47.400;8.062;2023-03-01T04:48:10;5.20;78.10
8711;DHT22;4392;47.400;8.062;2023-03-01T04:50:36;5.20;77.90
8711;DHT22;4392;47.400;8.062;2023-03-01T04:53:02;5.30;77.80
8711;DHT22;4392;47.400;8.062;2023-03-01T04:55:28;5.30;77.90
8711;DHT22;4392;47.400;8.062;2023-03-01T04:57:57;5.30;77.70
8711;DHT22;4392;47.400;8.062;2023-03-01T05:00:23;5.20;77.80
8711;DHT22;4392;47.400;8.062;2023-03-01T05:02:57;5.20;78.70
8711;DHT22;4392;47.400;8.062;2023-03-01T05:05:32;5.20;77.70
8711;DHT22;4392;47.400;8.062;2023-03-01T05:08:14;5.20;77.90
8711;DHT22;4392;47.400;8.062;2023-03-01T05:10:46;5.20;77.90
8711;DHT22;4392;47.400;8.062;2023-03-01T05:13:13;5.20;78.30
8711;DHT22;4392;47.400;8.062;2023-03-01T05:15:54;5.20;78.10
8711;DHT22;4392;47.400;8.062;2023-03-01T05:18:29;5.20;78.30
8711;DHT22;4392;47.400;8.062;2023-03-01T05:21:15;5.30;78.30
8711;DHT22;4392;47.400;8.062;2023-03-01T05:23:42;5.20;78.30
8711;DHT22;4392;47.400;8.062;2023-03-01T05:26:14;5.30;78.20
8711;DHT22;4392;47.400;8.062;2023-03-01T05:28:40;5.30;79.70
8711;DHT22;4392;47.400;8.062;2023-03-01T05:31:06;5.50;80.10
8711;DHT22;4392;47.400;8.062;2023-03-01T05:33:41;5.30;78.40
8711;DHT22;4392;47.400;8.062;2023-03-01T05:36:27;5.10;78.40
8711;DHT22;4392;47.400;8.062;2023-03-01T05:38:54;5.00;79.00
8711;DHT22;4392;47.400;8.062;2023-03-01T05:41:21;4.90;79.20
8711;DHT22;4392;47.400;8.062;2023-03-01T05:43:46;4.90;79.40
8711;DHT22;4392;47.400;8.062;2023-03-01T05:46:12;4.80;79.40
8711;DHT22;4392;47.400;8.062;2023-03-01T05:48:43;4.80;79.50
8711;DHT22;4392;47.400;8.062;2023-03-01T05:51:09;7.10;86.10
8711;DHT22;4392;47.400;8.062;2023-03-01T05:53:40;6.30;76.10
8711;DHT22;4392;47.400;8.062;2023-03-01T05:56:07;5.70;77.40
8711;DHT22;4392;47.400;8.062;2023-03-01T05:58:33;5.30;78.20
8711;DHT22;4392;47.400;8.062;2023-03-01T06:01:04;5.20;78.70
8711;DHT22;4392;47.400;8.062;2023-03-01T06:03:30;5.10;79.00
8711;DHT22;4392;47.400;8.062;2023-03-01T06:05:56;5.00;79.20
8711;DHT22;4392;47.400;8.062;2023-03-01T06:08:22;4.90;79.30
8711;DHT22;4392;47.400;8.062;2023-03-01T06:10:51;4.90;79.60
8711;DHT22;4392;47.400;8.062;2023-03-01T06:13:19;4.90;79.70
8711;DHT22;4392;47.400;8.062;2023-03-01T06:15:52;4.80;79.70
8711;DHT22;4392;47.400;8.062;2023-03-01T06:18:18;4.70;79.90
8711;DHT22;4392;47.400;8.062;2023-03-01T06:20:44;4.70;80.30
8711;DHT22;4392;47.400;8.062;2023-03-01T06:23:10;4.70;80.60
8711;DHT22;4392;47.400;8.062;2023-03-01T06:25:35;4.70;80.90
8711;DHT22;4392;47.400;8.062;2023-03-01T06:28:05;4.70;81.30
8711;DHT22;4392;47.400;8.062;2023-03-01T06:30:30;4.70;81.50
8711;DHT22;4392;47.400;8.062;2023-03-01T06:32:59;4.70;81.40
8711;DHT22;4392;47.400;8.062;2023-03-01T06:35:31;4.60;81.60
8711;DHT22;4392;47.400;8.062;2023-03-01T06:37:59;4.60;81.60
8711;DHT22;4392;47.400;8.062;2023-03-01T06:40:25;4.70;81.30
8711;DHT22;4392;47.400;8.062;2023-03-01T06:42:54;4.60;81.00
8711;DHT22;4392;47.400;8.062;2023-03-01T06:45:21;4.60;81.50
8711;DHT22;4392;47.400;8.062;2023-03-01T06:47:47;4.60;81.90
8711;DHT22;4392;47.400;8.062;2023-03-01T06:50:17;4.60;81.60
8711;DHT22;4392;47.400;8.062;2023-03-01T06:52:45;4.60;81.60
8711;DHT22;4392;47.400;8.062;2023-03-01T06:55:12;4.60;83.70
8711;DHT22;4392;47.400;8.062;2023-03-01T06:57:39;4.80;82.30
8711;DHT22;4392;47.400;8.062;2023-03-01T07:00:09;4.70;81.70
8711;DHT22;4392;47.400;8.062;2023-03-01T07:02:34;4.70;81.50
8711;DHT22;4392;47.400;8.062;2023-03-01T07:05:00;4.60;81.50
8711;DHT22;4392;47.400;8.062;2023-03-01T07:07:26;4.50;81.70
8711;DHT22;4392;47.400;8.062;2023-03-01T07:09:57;4.50;82.30
8711;DHT22;4392;47.400;8.062;2023-03-01T07:12:23;4.50;83.00
8711;DHT22;4392;47.400;8.062;2023-03-01T07:14:49;4.60;82.30
8711;DHT22;4392;47.400;8.062;2023-03-01T07:17:15;4.70;82.30
8711;DHT22;4392;47.400;8.062;2023-03-01T07:19:43;4.70;82.20
8711;DHT22;4392;47.400;8.062;2023-03-01T07:22:13;4.60;82.20
8711;DHT22;4392;47.400;8.062;2023-03-01T07:24:40;4.70;84.30
8711;DHT22;4392;47.400;8.062;2023-03-01T07:27:11;4.90;83.60
8711;DHT22;4392;47.400;8.062;2023-03-01T07:29:37;4.90;82.30
8711;DHT22;4392;47.400;8.062;2023-03-01T07:32:10;4.90;82.10
8711;DHT22;4392;47.400;8.062;2023-03-01T07:34:36;4.90;82.10
8711;DHT22;4392;47.400;8.062;2023-03-01T07:37:02;4.90;82.00
8711;DHT22;4392;47.400;8.062;2023-03-01T07:39:30;4.90;81.90
8711;DHT22;4392;47.400;8.062;2023-03-01T07:42:00;4.90;81.90
8711;DHT22;4392;47.400;8.062;2023-03-01T07:44:25;5.20;88.40
8711;DHT22;4392;47.400;8.062;2023-03-01T07:46:51;4.60;82.60
8711;DHT22;4392;47.400;8.062;2023-03-01T07:49:25;4.60;83.60
8711;DHT22;4392;47.400;8.062;2023-03-01T07:51:54;4.60;83.00
8711;DHT22;4392;47.400;8.062;2023-03-01T07:54:23;4.60;82.90
8711;DHT22;4392;47.400;8.062;2023-03-01T07:56:48;4.70;82.90
8711;DHT22;4392;47.400;8.062;2023-03-01T07:59:14;4.60;82.70
8711;DHT22;4392;47.400;8.062;2023-03-01T08:01:44;4.60;82.70
8711;DHT22;4392;47.400;8.062;2023-03-01T08:04:13;4.60;83.10
8711;DHT22;4392;47.400;8.062;2023-03-01T08:06:39;4.60;84.20
8711;DHT22;4392;47.400;8.062;2023-03-01T08:09:10;4.60;83.30
8711;DHT22;4392;47.400;8.062;2023-03-01T08:11:38;4.60;83.30
8711;DHT22;4392;47.400;8.062;2023-03-01T08:14:05;4.60;83.30
8711;DHT22;4392;47.400;8.062;2023-03-01T08:16:39;4.50;83.00
8711;DHT22;4392;47.400;8.062;2023-03-01T08:19:11;4.40;84.10
8711;DHT22;4392;47.400;8.062;2023-03-01T08:21:37;4.50;84.00
8711;DHT22;4392;47.400;8.062;2023-03-01T08:24:05;4.60;83.90
8711;DHT22;4392;47.400;8.062;2023-03-01T08:26:34;4.60;83.80
8711;DHT22;4392;47.400;8.062;2023-03-01T08:29:00;4.60;84.20
8711;DHT22;4392;47.400;8.062;2023-03-01T08:31:32;4.60;83.80
8711;DHT22;4392;47.400;8.062;2023-03-01T08:34:17;4.60;83.90
8711;DHT22;4392;47.400;8.062;2023-03-01T08:39:15;4.70;84.20
8711;DHT22;4392;47.400;8.062;2023-03-01T08:41:43;4.70;83.80
8711;DHT22;4392;47.400;8.062;2023-03-01T08:44:16;4.70;83.80
8711;DHT22;4392;47.400;8.062;2023-03-01T08:46:48;4.70;83.90
8711;DHT22;4392;47.400;8.062;2023-03-01T08:49:17;4.70;83.90
8711;DHT22;4392;47.400;8.062;2023-03-01T08:51:44;4.70;83.80
8711;DHT22;4392;47.400;8.062;2023-03-01T08:54:16;4.60;83.80
8711;DHT22;4392;47.400;8.062;2023-03-01T08:56:44;4.60;84.00
8711;DHT22;4392;47.400;8.062;2023-03-01T08:59:17;4.50;84.10
8711;DHT22;4392;47.400;8.062;2023-03-01T09:01:43;4.60;84.10
8711;DHT22;4392;47.400;8.062;2023-03-01T09:04:09;5.00;92.40
8711;DHT22;4392;47.400;8.062;2023-03-01T09:06:36;7.00;88.50
8711;DHT22;4392;47.400;8.062;2023-03-01T09:09:05;6.20;80.20
8711;DHT22;4392;47.400;8.062;2023-03-01T09:11:34;5.40;80.50
8711;DHT22;4392;47.400;8.062;2023-03-01T09:14:07;5.00;81.40
8711;DHT22;4392;47.400;8.062;2023-03-01T09:16:33;4.80;82.40
8711;DHT22;4392;47.400;8.062;2023-03-01T09:19:05;4.20;83.80
8711;DHT22;4392;47.400;8.062;2023-03-01T09:21:31;4.30;84.70
8711;DHT22;4392;47.400;8.062;2023-03-01T09:23:57;4.60;86.20
8711;DHT22;4392;47.400;8.062;2023-03-01T09:26:24;4.60;83.70
8711;DHT22;4392;47.400;8.062;2023-03-01T09:28:54;4.20;85.00
8711;DHT22;4392;47.400;8.062;2023-03-01T09:31:22;4.40;85.50
8711;DHT22;4392;47.400;8.062;2023-03-01T09:33:55;4.50;84.80
8711;DHT22;4392;47.400;8.062;2023-03-01T09:36:23;4.60;84.40
8711;DHT22;4392;47.400;8.062;2023-03-01T09:38:57;4.60;84.10
8711;DHT22;4392;47.400;8.062;2023-03-01T09:42:00;4.70;84.20
8711;DHT22;4392;47.400;8.062;2023-03-01T09:47:20;4.70;84.20
8711;DHT22;4392;47.400;8.062;2023-03-01T09:50:11;4.70;84.20
8711;DHT22;4392;47.400;8.062;2023-03-01T09:55:26;4.70;84.20
8711;DHT22;4392;47.400;8.062;2023-03-01T10:04:39;4.70;83.80
8711;DHT22;4392;47.400;8.062;2023-03-01T10:10:10;4.70;83.70
8711;DHT22;4392;47.400;8.062;2023-03-01T10:12:41;4.80;83.70
8711;DHT22;4392;47.400;8.062;2023-03-01T10:15:34;4.70;83.60
8711;DHT22;4392;47.400;8.062;2023-03-01T10:18:12;4.70;83.50
8711;DHT22;4392;47.400;8.062;2023-03-01T10:20:43;4.70;83.70
8711;DHT22;4392;47.400;8.062;2023-03-01T10:23:10;4.80;84.80
8711;DHT22;4392;47.400;8.062;2023-03-01T10:26:02;4.90;85.10
8711;DHT22;4392;47.400;8.062;2023-03-01T10:31:24;4.80;83.70
8711;DHT22;4392;47.400;8.062;2023-03-01T10:34:07;4.70;83.60
8711;DHT22;4392;47.400;8.062;2023-03-01T10:36:33;4.70;83.50
8711;DHT22;4392;47.400;8.062;2023-03-01T10:39:12;4.70;83.70
8711;DHT22;4392;47.400;8.062;2023-03-01T10:41:53;4.60;83.70
8711;DHT22;4392;47.400;8.062;2023-03-01T10:44:45;4.60;83.80
8711;DHT22;4392;47.400;8.062;2023-03-01T10:47:26;4.60;83.90
8711;DHT22;4392;47.400;8.062;2023-03-01T10:50:03;4.60;83.80
8711;DHT22;4392;47.400;8.062;2023-03-01T10:52:36;4.60;83.80
8711;DHT22;4392;47.400;8.062;2023-03-01T10:55:43;4.60;83.80
8711;DHT22;4392;47.400;8.062;2023-03-01T10:58:22;4.60;83.90
8711;DHT22;4392;47.400;8.062;2023-03-01T11:01:03;4.60;83.90
8711;DHT22;4392;47.400;8.062;2023-03-01T11:03:38;4.50;84.30
8711;DHT22;4392;47.400;8.062;2023-03-01T11:08:50;4.60;83.90
8711;DHT22;4392;47.400;8.062;2023-03-01T11:11:37;4.30;83.70
8711;DHT22;4392;47.400;8.062;2023-03-01T11:14:07;4.40;84.40
8711;DHT22;4392;47.400;8.062;2023-03-01T11:16:40;4.50;84.00
8711;DHT22;4392;47.400;8.062;2023-03-01T11:24:37;4.60;83.70
8711;DHT22;4392;47.400;8.062;2023-03-01T11:29:44;4.60;83.80
8711;DHT22;4392;47.400;8.062;2023-03-01T11:32:17;4.60;83.70
8711;DHT22;4392;47.400;8.062;2023-03-01T11:34:56;4.60;83.50
8711;DHT22;4392;47.400;8.062;2023-03-01T11:37:30;4.60;83.50
8711;DHT22;4392;47.400;8.062;2023-03-01T11:40:19;4.70;83.70
8711;DHT22;4392;47.400;8.062;2023-03-01T11:43:05;4.70;85.20
8711;DHT22;4392;47.400;8.062;2023-03-01T11:45:58;4.70;83.40
8711;DHT22;4392;47.400;8.062;2023-03-01T11:56:43;4.80;84.10
8711;DHT22;4392;47.400;8.062;2023-03-01T12:11:04;4.90;83.30
8711;DHT22;4392;47.400;8.062;2023-03-01T12:21:30;5.50;86.50
8711;DHT22;4392;47.400;8.062;2023-03-01T12:30:24;5.50;85.20
8711;DHT22;4392;47.400;8.062;2023-03-01T12:44:01;7.50;88.50
8711;DHT22;4392;47.400;8.062;2023-03-01T12:49:28;9.60;81.80
8711;DHT22;4392;47.400;8.062;2023-03-01T12:52:03;9.90;79.20
8711;DHT22;4392;47.400;8.062;2023-03-01T12:54:36;8.80;75.60
8711;DHT22;4392;47.400;8.062;2023-03-01T12:57:34;8.30;71.40
8711;DHT22;4392;47.400;8.062;2023-03-01T13:08:31;6.70;75.70
8711;DHT22;4392;47.400;8.062;2023-03-01T13:11:15;6.60;78.00
8711;DHT22;4392;47.400;8.062;2023-03-01T13:13:41;6.50;76.20
8711;DHT22;4392;47.400;8.062;2023-03-01T13:19:10;6.40;77.60
8711;DHT22;4392;47.400;8.062;2023-03-01T13:21:40;6.30;77.40
8711;DHT22;4392;47.400;8.062;2023-03-01T13:24:29;6.10;77.20
8711;DHT22;4392;47.400;8.062;2023-03-01T13:29:53;5.80;77.90
8711;DHT22;4392;47.400;8.062;2023-03-01T13:32:29;5.80;78.30
8711;DHT22;4392;47.400;8.062;2023-03-01T13:35:01;6.00;85.40
8711;DHT22;4392;47.400;8.062;2023-03-01T13:37:29;6.80;87.90
8711;DHT22;4392;47.400;8.062;2023-03-01T13:40:01;7.10;84.90
8711;DHT22;4392;47.400;8.062;2023-03-01T13:42:47;7.70;84.30
8711;DHT22;4392;47.400;8.062;2023-03-01T13:48:03;7.90;82.40
8711;DHT22;4392;47.400;8.062;2023-03-01T13:50:42;8.10;81.40
8711;DHT22;4392;47.400;8.062;2023-03-01T13:53:16;8.30;80.00
8711;DHT22;4392;47.400;8.062;2023-03-01T13:55:45;8.40;79.40
8711;DHT22;4392;47.400;8.062;2023-03-01T14:01:39;8.50;78.50
8711;DHT22;4392;47.400;8.062;2023-03-01T14:06:49;8.70;76.90
8711;DHT22;4392;47.400;8.062;2023-03-01T14:09:28;8.60;74.20
8711;DHT22;4392;47.400;8.062;2023-03-01T14:14:48;8.80;76.30
8711;DHT22;4392;47.400;8.062;2023-03-01T14:22:46;8.70;73.80
8711;DHT22;4392;47.400;8.062;2023-03-01T14:30:38;9.00;73.40
8711;DHT22;4392;47.400;8.062;2023-03-01T14:33:43;8.90;71.70
8711;DHT22;4392;47.400;8.062;2023-03-01T14:36:26;8.90;72.70
8711;DHT22;4392;47.400;8.062;2023-03-01T14:38:58;8.80;73.00
8711;DHT22;4392;47.400;8.062;2023-03-01T14:41:37;9.00;72.20
8711;DHT22;4392;47.400;8.062;2023-03-01T14:44:07;9.00;72.40
8711;DHT22;4392;47.400;8.062;2023-03-01T14:46:43;9.20;70.70
8711;DHT22;4392;47.400;8.062;2023-03-01T14:51:47;9.50;71.70
8711;DHT22;4392;47.400;8.062;2023-03-01T14:54:27;9.40;64.70
8711;DHT22;4392;47.400;8.062;2023-03-01T14:56:58;8.20;66.10
8711;DHT22;4392;47.400;8.062;2023-03-01T14:59:33;7.60;68.30
8711;DHT22;4392;47.400;8.062;2023-03-01T15:02:08;7.20;69.60
8711;DHT22;4392;47.400;8.062;2023-03-01T15:04:41;7.00;70.50
8711;DHT22;4392;47.400;8.062;2023-03-01T15:07:12;6.80;71.10
8711;DHT22;4392;47.400;8.062;2023-03-01T15:09:48;6.70;71.70
8711;DHT22;4392;47.400;8.062;2023-03-01T15:14:58;6.60;72.10
8711;DHT22;4392;47.400;8.062;2023-03-01T15:17:37;6.10;73.70
8711;DHT22;4392;47.400;8.062;2023-03-01T15:20:18;6.20;74.10
8711;DHT22;4392;47.400;8.062;2023-03-01T15:22:47;6.20;73.80
8711;DHT22;4392;47.400;8.062;2023-03-01T15:25:25;6.30;73.60
8711;DHT22;4392;47.400;8.062;2023-03-01T15:27:55;6.40;73.60
8711;DHT22;4392;47.400;8.062;2023-03-01T15:30:44;6.40;73.40
8711;DHT22;4392;47.400;8.062;2023-03-01T15:33:32;6.40;73.60
8711;DHT22;4392;47.400;8.062;2023-03-01T15:38:57;6.60;73.80
8711;DHT22;4392;47.400;8.062;2023-03-01T15:41:37;6.50;73.50
8711;DHT22;4392;47.400;8.062;2023-03-01T15:44:32;6.40;73.80
8711;DHT22;4392;47.400;8.062;2023-03-01T15:46:58;6.20;74.20
8711;DHT22;4392;47.400;8.062;2023-03-01T15:50:00;6.20;74.60
8711;DHT22;4392;47.400;8.062;2023-03-01T15:52:27;6.10;74.30
8711;DHT22;4392;47.400;8.062;2023-03-01T15:55:04;6.10;74.40
8711;DHT22;4392;47.400;8.062;2023-03-01T15:57:34;6.10;74.80
8711;DHT22;4392;47.400;8.062;2023-03-01T16:00:00;6.00;74.80
8711;DHT22;4392;47.400;8.062;2023-03-01T16:02:26;5.90;74.70
8711;DHT22;4392;47.400;8.062;2023-03-01T16:04:51;5.90;75.00
8711;DHT22;4392;47.400;8.062;2023-03-01T16:07:21;6.00;75.10
8711;DHT22;4392;47.400;8.062;2023-03-01T16:09:46;6.10;76.40
8711;DHT22;4392;47.400;8.062;2023-03-01T16:12:16;6.00;75.20
8711;DHT22;4392;47.400;8.062;2023-03-01T16:14:45;5.90;75.20
8711;DHT22;4392;47.400;8.062;2023-03-01T16:17:16;5.80;75.30
8711;DHT22;4392;47.400;8.062;2023-03-01T16:19:42;5.80;75.60
8711;DHT22;4392;47.400;8.062;2023-03-01T16:22:12;5.70;76.00
8711;DHT22;4392;47.400;8.062;2023-03-01T16:24:37;5.70;75.70
8711;DHT22;4392;47.400;8.062;2023-03-01T16:27:03;5.70;75.90
8711;DHT22;4392;47.400;8.062;2023-03-01T16:29:29;5.70;76.00
8711;DHT22;4392;47.400;8.062;2023-03-01T16:31:55;5.80;76.80
8711;DHT22;4392;47.400;8.062;2023-03-01T16:34:24;5.70;75.70
8711;DHT22;4392;47.400;8.062;2023-03-01T16:36:49;5.60;75.80
8711;DHT22;4392;47.400;8.062;2023-03-01T16:39:15;5.50;76.00
8711;DHT22;4392;47.400;8.062;2023-03-01T16:41:47;5.40;75.90
8711;DHT22;4392;47.400;8.062;2023-03-01T16:44:14;5.40;76.00
8711;DHT22;4392;47.400;8.062;2023-03-01T16:46:42;5.40;76.30
8711;DHT22;4392;47.400;8.062;2023-03-01T16:49:08;5.30;77.30
8711;DHT22;4392;47.400;8.062;2023-03-01T16:51:39;5.30;76.60
8711;DHT22;4392;47.400;8.062;2023-03-01T16:54:04;5.50;77.50
8711;DHT22;4392;47.400;8.062;2023-03-01T16:56:30;5.60;76.80
8711;DHT22;4392;47.400;8.062;2023-03-01T16:59:01;5.50;76.60
8711;DHT22;4392;47.400;8.062;2023-03-01T17:01:26;5.50;76.60
8711;DHT22;4392;47.400;8.062;2023-03-01T17:04:03;5.50;77.40
8711;DHT22;4392;47.400;8.062;2023-03-01T17:06:29;5.70;78.70
8711;DHT22;4392;47.400;8.062;2023-03-01T17:08:56;5.80;78.50
8711;DHT22;4392;47.400;8.062;2023-03-01T17:11:26;5.90;76.80
8711;DHT22;4392;47.400;8.062;2023-03-01T17:13:54;5.80;79.20
8711;DHT22;4392;47.400;8.062;2023-03-01T17:16:20;5.80;76.70
8711;DHT22;4392;47.400;8.062;2023-03-01T17:18:47;5.90;79.10
8711;DHT22;4392;47.400;8.062;2023-03-01T17:21:19;5.80;76.20
8711;DHT22;4392;47.400;8.062;2023-03-01T17:23:46;5.80;75.90
8711;DHT22;4392;47.400;8.062;2023-03-01T17:26:18;5.80;75.80
8711;DHT22;4392;47.400;8.062;2023-03-01T17:28:44;5.80;77.60
8711;DHT22;4392;47.400;8.062;2023-03-01T17:31:10;5.80;77.20
8711;DHT22;4392;47.400;8.062;2023-03-01T17:33:36;5.70;76.70
8711;DHT22;4392;47.400;8.062;2023-03-01T17:36:07;5.70;77.40
8711;DHT22;4392;47.400;8.062;2023-03-01T17:38:33;5.70;77.70
8711;DHT22;4392;47.400;8.062;2023-03-01T17:41:06;5.60;76.70
8711;DHT22;4392;47.400;8.062;2023-03-01T17:43:37;5.50;76.60
8711;DHT22;4392;47.400;8.062;2023-03-01T17:46:07;5.60;78.60
8711;DHT22;4392;47.400;8.062;2023-03-01T17:48:33;5.50;77.60
8711;DHT22;4392;47.400;8.062;2023-03-01T17:50:58;5.40;77.00
8711;DHT22;4392;47.400;8.062;2023-03-01T17:53:24;5.30;77.40
8711;DHT22;4392;47.400;8.062;2023-03-01T17:55:59;5.30;77.60
8711;DHT22;4392;47.400;8.062;2023-03-01T17:58:25;5.30;77.90
8711;DHT22;4392;47.400;8.062;2023-03-01T18:01:19;5.20;78.00
8711;DHT22;4392;47.400;8.062;2023-03-01T18:03:45;5.30;78.70
8711;DHT22;4392;47.400;8.062;2023-03-01T18:06:17;5.30;78.50
8711;DHT22;4392;47.400;8.062;2023-03-01T18:08:49;5.30;78.90
8711;DHT22;4392;47.400;8.062;2023-03-01T18:11:18;5.20;79.20
8711;DHT22;4392;47.400;8.062;2023-03-01T18:13:44;5.20;79.10
8711;DHT22;4392;47.400;8.062;2023-03-01T18:16:14;5.20;79.10
8711;DHT22;4392;47.400;8.062;2023-03-01T18:18:44;5.10;78.90
8711;DHT22;4392;47.400;8.062;2023-03-01T18:21:11;5.10;79.20
8711;DHT22;4392;47.400;8.062;2023-03-01T18:23:43;5.10;79.30
8711;DHT22;4392;47.400;8.062;2023-03-01T18:26:11;5.10;79.40
8711;DHT22;4392;47.400;8.062;2023-03-01T18:28:40;5.10;79.60
8711;DHT22;4392;47.400;8.062;2023-03-01T18:31:08;5.10;79.70
8711;DHT22;4392;47.400;8.062;2023-03-01T18:33:39;5.10;80.00
8711;DHT22;4392;47.400;8.062;2023-03-01T18:36:19;5.10;80.00
8711;DHT22;4392;47.400;8.062;2023-03-01T18:38:47;5.20;79.80
8711;DHT22;4392;47.400;8.062;2023-03-01T18:41:17;5.20;80.00
8711;DHT22;4392;47.400;8.062;2023-03-01T18:43:43;5.20;80.10
8711;DHT22;4392;47.400;8.062;2023-03-01T18:46:09;5.20;80.20
8711;DHT22;4392;47.400;8.062;2023-03-01T18:48:37;5.20;80.20
8711;DHT22;4392;47.400;8.062;2023-03-01T18:51:29;5.20;80.10
8711;DHT22;4392;47.400;8.062;2023-03-01T18:53:56;5.10;80.20
8711;DHT22;4392;47.400;8.062;2023-03-01T18:56:27;5.10;80.20
8711;DHT22;4392;47.400;8.062;2023-03-01T18:58:57;5.10;80.10